ADDS METAR Data INFO
IDs: Format: Raw Decoded Include TAF

Data at: 1748 UTC 21 Sep 2017

KGPM 211650Z 15010G16KT 10SM BKN029 31/21 A2998
KGPM 211550Z 15012G20KT 10SM SCT023 BKN029 28/22 A2998
KGPM 211450Z 16010KT 10SM BKN017 OVC025 28/22 A2998
KGPM 211350Z 14012KT 10SM OVC015 26/22 A2997
KGPM 211250Z 14008KT 10SM SCT017 26/22 A2996
KGPM 211150Z 15008KT 10SM SKC 26/22 A2993
KGPM 211135Z AUTO 16008G14KT 10SM CLR 26/22 A2993 RMK AO2 T02570215
KGPM 211115Z AUTO 16006KT 10SM SCT020 26/22 A2993 RMK AO2 T02570215
KGPM 211055Z AUTO 16009G15KT 10SM SCT018 26/22 A2992 RMK AO2 T02600216
KGPM 211035Z AUTO 16009KT 10SM BKN016 26/22 A2993 RMK AO2 T02600216
KGPM 211015Z AUTO 17007G14KT 10SM SCT016 26/22 A2992 RMK AO2 T02610217
KGPM 210955Z AUTO 17009KT 10SM CLR 26/22 A2991 RMK AO2 T02620217
KGPM 210935Z AUTO 17010G15KT 10SM SCT017 26/22 A2992 RMK AO2 T02640218
KGPM 210915Z AUTO 16008KT 10SM CLR 27/22 A2991 RMK AO2 T02650218
KGPM 210855Z AUTO 16008G15KT 10SM CLR 27/22 A2991 RMK AO2 T02660217
KGPM 210835Z AUTO 15008KT 10SM CLR 27/22 A2991 RMK AO2 T02670217
KGPM 210815Z AUTO 15007KT 10SM CLR 27/22 A2991 RMK AO2 T02670217
KGPM 210755Z AUTO 15011G16KT 10SM CLR 27/22 A2990 RMK AO2 T02670217
KGPM 210735Z AUTO 14008G14KT 10SM CLR 27/22 A2990 RMK AO2 T02680215
KGPM 210715Z AUTO 15009KT 10SM CLR 27/22 A2990 RMK AO2 T02700215
KGPM 210655Z AUTO 14008G14KT 10SM CLR 27/21 A2991 RMK AO2 T02730213
KGPM 210635Z AUTO 14010KT 10SM CLR 28/21 A2991 RMK AO2 T02750211
KGPM 210615Z AUTO 13009KT 10SM CLR 28/21 A2991 RMK AO2 T02780208
KGPM 210555Z AUTO 14009G14KT 10SM CLR 28/21 A2990 RMK AO2 T02810206 10339 20281 403590247
KGPM 210535Z AUTO 14008KT 10SM CLR 28/21 A2991 RMK AO2 T02840205
KGPM 210515Z AUTO 14008KT 10SM CLR 29/20 A2991 RMK AO2 T02880203
KGPM 210455Z AUTO 14007KT 10SM CLR 29/20 A2991 RMK AO2 T02890200
KGPM 210435Z AUTO 14007KT 10SM CLR 29/20 A2990 RMK AO2 T02910198
KGPM 210415Z AUTO 14007KT 10SM CLR 30/20 A2991 RMK AO2 T02950198
KGPM 210355Z AUTO 14007KT 10SM CLR 30/20 A2990 RMK AO2 T02970198
KGPM 210335Z AUTO 15009KT 10SM CLR 30/20 A2990 RMK AO2 T03000198
KGPM 210315Z AUTO 15007KT 10SM CLR 30/20 A2989 RMK AO2 T03000200
KGPM 210255Z AUTO 14007G15KT 10SM CLR 31/20 A2988 RMK AO2 T03050200
KGPM 210235Z AUTO 14009G15KT 10SM CLR 31/20 A2987 RMK AO2 T03060200
KGPM 210215Z AUTO 14007KT 10SM CLR 31/20 A2987 RMK AO2 T03080199
KGPM 210150Z 14007KT 10SM SKC 31/19 A2986
KGPM 210050Z 14007KT 10SM SKC 31/19 A2986
KGPM 202350Z 14009G16KT 10SM SKC 34/19 A2983
KGPM 202250Z 15010G16KT 10SM SKC 35/19 A2982
KGPM 202150Z 16011G16KT 10SM SKC 36/19 A2982
KGPM 202050Z 17008G18KT 10SM SKC 34/19 A2983
KGPM 201950Z 15010G18KT 10SM SKC 35/20 A2985
KGPM 201850Z 14013G13KT 10SM SKC 34/21 A2986
KGPM 201750Z 15010G20KT 10SM SKC 32/21 A2989
KGPM 201650Z 16008G18KT 10SM SKC 32/21 A2991
KGPM 201550Z 16010G20KT 10SM SCT025 28/21 A2992
KGPM 201450Z 19012G20KT 10SM SCT019 28/21 A2992
KGPM 201350Z 18010G16KT 10SM BKN015 26/21 A2991
KGPM 201250Z 16008G18KT 10SM SCT015 25/21 A2990
KGPM 201150Z 15010G18KT 10SM SKC 25/21 A2988
KGPM 201135Z AUTO 15007G14KT 10SM CLR 25/21 A2988 RMK AO2 T02500208
KGPM 201115Z AUTO 15009KT 10SM CLR 25/21 A2987 RMK AO2 T02520210
KGPM 201055Z AUTO 16008KT 10SM CLR 26/21 A2987 RMK AO2 T02550210
KGPM 201035Z AUTO 16008G15KT 10SM CLR 26/21 A2986 RMK AO2 T02570210
KGPM 201015Z AUTO 16007KT 10SM CLR 26/21 A2986 RMK AO2 T02580210
KGPM 201000Z AUTO 16009KT 10SM CLR 26/21 A2985 RMK AO2 T02600210
KGPM 200935Z AUTO 16010G14KT 10SM CLR 26/21 A2985 RMK AO2 T02630210
KGPM 200915Z AUTO 16007G14KT 10SM CLR 27/21 A2985 RMK AO2 T02650210
KGPM 200855Z AUTO 15009KT 10SM CLR 27/21 A2985 RMK AO2 T02670210
KGPM 200835Z AUTO 16008G14KT 10SM CLR 27/21 A2985 RMK AO2 T02690209
KGPM 200815Z AUTO 16008G17KT 10SM CLR 27/21 A2985 RMK AO2 T02710208
KGPM 200755Z AUTO 16008G15KT 10SM CLR 27/21 A2985 RMK AO2 T02740208
KGPM 200735Z AUTO 15006KT 10SM CLR 28/21 A2986 RMK AO2 T02750207
KGPM 200715Z AUTO 15006KT 10SM CLR 28/21 A2986 RMK AO2 T02760206
KGPM 200655Z AUTO 16005KT 10SM CLR 28/21 A2985 RMK AO2 T02760206
KGPM 200635Z AUTO 15005KT 10SM CLR 28/21 A2985 RMK AO2 T02750206
KGPM 200615Z AUTO 14005KT 10SM CLR 28/21 A2984 RMK AO2 T02750205
KGPM 200555Z AUTO 14004KT 10SM CLR 28/20 A2985 RMK AO2 T02760203 10336 20276 403590236